createdAt,value
2023-02-07T00:00:37.937Z,1037
2023-02-07T00:01:37.441Z,1037
2023-02-07T00:02:37.902Z,1037
2023-02-07T00:03:37.707Z,1037
2023-02-07T00:04:37.576Z,1037
2023-02-07T00:05:38.170Z,1037
2023-02-07T00:06:37.424Z,1037
2023-02-07T00:07:38.124Z,1036.9
2023-02-07T00:08:37.995Z,1036.9
2023-02-07T00:09:37.450Z,1036.9
2023-02-07T00:10:37.409Z,1036.9
2023-02-07T00:11:37.401Z,1036.9
2023-02-07T00:12:37.761Z,1036.9
2023-02-07T00:13:37.801Z,1036.9
2023-02-07T00:14:37.407Z,1036.9
2023-02-07T00:15:38.097Z,1036.9
2023-02-07T00:16:37.482Z,1037
2023-02-07T00:17:37.765Z,1037
2023-02-07T00:18:38.414Z,1037.1
2023-02-07T00:19:37.942Z,1037.1
2023-02-07T00:20:37.935Z,1037.1
2023-02-07T00:21:37.446Z,1037
2023-02-07T00:22:37.406Z,1037
2023-02-07T00:23:37.468Z,1037.1
2023-02-07T00:24:37.410Z,1037.1
2023-02-07T00:25:38.292Z,1037.2
2023-02-07T00:26:37.564Z,1037.1
2023-02-07T00:27:37.613Z,1037.2
2023-02-07T00:28:37.529Z,1037.2
2023-02-07T00:29:37.393Z,1037.3
2023-02-07T00:30:38.307Z,1037.3
2023-02-07T00:31:37.860Z,1037.3
2023-02-07T00:32:37.695Z,1037.2
2023-02-07T00:33:38.200Z,1037.2
2023-02-07T00:34:37.410Z,1037.2
2023-02-07T00:35:37.788Z,1037.3
2023-02-07T00:36:37.798Z,1037.2
2023-02-07T00:37:40.950Z,1037.2
2023-02-07T00:38:40.971Z,1037.2
2023-02-07T00:39:40.952Z,1037.2
2023-02-07T00:41:40.948Z,1037.2
2023-02-07T00:42:40.972Z,1037.2
2023-02-07T00:43:40.955Z,1037.2
2023-02-07T00:44:40.972Z,1037.2
2023-02-07T00:47:40.966Z,1037.3
2023-02-07T00:48:41.022Z,1037.3
2023-02-07T00:49:40.961Z,1037.3
2023-02-07T00:50:40.954Z,1037.2
2023-02-07T00:51:40.970Z,1037.2
2023-02-07T00:52:41.028Z,1037.2
2023-02-07T00:53:49.283Z,1037.1
2023-02-07T00:54:49.314Z,1037.1
2023-02-07T00:55:49.282Z,1037.2
2023-02-07T00:56:49.274Z,1037.2
2023-02-07T00:57:49.292Z,1037.2
2023-02-07T00:58:50.962Z,1037.2
2023-02-07T00:59:49.293Z,1037.2
2023-02-07T01:00:49.285Z,1037.1
2023-02-07T01:01:49.283Z,1037.1
2023-02-07T01:02:49.275Z,1037.2
2023-02-07T01:03:49.329Z,1037.2
2023-02-07T01:04:49.388Z,1037.2
2023-02-07T01:05:49.304Z,1037.2
2023-02-07T01:06:49.305Z,1037.1
2023-02-07T01:08:49.474Z,1037.2
2023-02-07T01:10:08.017Z,1037.1
2023-02-07T01:13:50.382Z,1037.2
2023-02-07T01:16:18.626Z,1037.3
2023-02-07T01:22:29.258Z,1037.1
2023-02-07T01:29:17.309Z,1037.3
2023-02-07T01:30:42.190Z,1037.3
2023-02-07T01:33:40.972Z,1037.2
2023-02-07T01:34:40.969Z,1037.2
2023-02-07T01:35:41.032Z,1037.1
2023-02-07T01:36:40.973Z,1037
2023-02-07T01:37:40.968Z,1037
2023-02-07T01:38:40.955Z,1037
2023-02-07T01:39:40.978Z,1037
2023-02-07T01:40:40.999Z,1037
2023-02-07T01:41:40.963Z,1037.1
2023-02-07T01:42:40.964Z,1037.1
2023-02-07T01:43:40.959Z,1037.1
2023-02-07T01:44:40.968Z,1037
2023-02-07T01:45:41.284Z,1037.1
2023-02-07T01:46:40.959Z,1037.1
2023-02-07T01:47:40.959Z,1037.2
2023-02-07T01:48:40.959Z,1037.2
2023-02-07T01:49:40.993Z,1037.2
2023-02-07T01:50:40.967Z,1037.2
2023-02-07T01:51:40.964Z,1037.1
2023-02-07T01:52:40.970Z,1037.1
2023-02-07T01:54:40.956Z,1037.2
2023-02-07T01:55:41.212Z,1037.2
2023-02-07T01:56:40.965Z,1037.2
2023-02-07T01:57:41.005Z,1037.2
2023-02-07T01:58:40.966Z,1037.2
2023-02-07T01:59:40.985Z,1037.2
2023-02-07T02:00:40.980Z,1037.2
2023-02-07T02:01:41.009Z,1037.2
2023-02-07T02:02:41.044Z,1037.3
2023-02-07T02:03:40.974Z,1037.2
2023-02-07T02:04:40.962Z,1037.2
2023-02-07T02:05:40.969Z,1037.2
2023-02-07T02:06:40.971Z,1037.2
2023-02-07T02:08:41.344Z,1037.2
2023-02-07T02:09:40.959Z,1037.2
2023-02-07T02:10:40.963Z,1037.3
2023-02-07T02:11:40.970Z,1037.3
2023-02-07T02:12:40.973Z,1037.3
2023-02-07T02:13:49.318Z,1037.3
2023-02-07T02:14:49.311Z,1037.3
2023-02-07T02:15:49.319Z,1037.3
2023-02-07T02:16:49.337Z,1037.3
2023-02-07T02:17:49.292Z,1037.3
2023-02-07T02:18:49.308Z,1037.3
2023-02-07T02:19:49.288Z,1037.2
2023-02-07T02:20:49.326Z,1037.2
2023-02-07T02:21:49.295Z,1037.3
2023-02-07T02:22:49.297Z,1037.3
2023-02-07T02:23:49.314Z,1037.3
2023-02-07T02:24:49.310Z,1037.3
2023-02-07T02:25:49.308Z,1037.4
2023-02-07T02:26:49.290Z,1037.3
2023-02-07T02:27:49.364Z,1037.4
2023-02-07T02:28:49.299Z,1037.3
2023-02-07T02:29:49.486Z,1037.4
2023-02-07T02:31:41.056Z,1037.2
2023-02-07T02:32:40.964Z,1037.2
2023-02-07T02:33:40.975Z,1037.2
2023-02-07T02:35:41.134Z,1037.2
2023-02-07T02:36:40.958Z,1037.2
2023-02-07T02:37:40.964Z,1037.2
2023-02-07T02:38:40.969Z,1037.2
2023-02-07T02:40:40.968Z,1037.2
2023-02-07T02:41:40.977Z,1037.2
2023-02-07T02:42:40.964Z,1037.3
2023-02-07T02:43:40.971Z,1037.2
2023-02-07T02:44:40.971Z,1037.3
2023-02-07T02:45:40.963Z,1037.3
2023-02-07T02:46:41.015Z,1037.3
2023-02-07T02:48:40.976Z,1037.2
2023-02-07T02:49:40.971Z,1037.2
2023-02-07T02:50:40.981Z,1037.2
2023-02-07T02:51:41.014Z,1037.2
2023-02-07T02:52:50.717Z,1037.2
2023-02-07T02:53:40.975Z,1037.2
2023-02-07T02:54:40.969Z,1037.1
2023-02-07T02:57:40.977Z,1037.1
2023-02-07T02:58:40.972Z,1037
2023-02-07T02:59:40.968Z,1037
2023-02-07T03:02:40.968Z,1037.1
2023-02-07T03:03:40.968Z,1037.1
2023-02-07T03:04:40.980Z,1037.1
2023-02-07T03:05:41.014Z,1037.1
2023-02-07T03:06:40.969Z,1037.1
2023-02-07T03:07:41.033Z,1037.1
2023-02-07T03:08:40.974Z,1037
2023-02-07T03:09:40.981Z,1037
2023-02-07T03:10:40.974Z,1037
2023-02-07T03:11:40.985Z,1037
2023-02-07T03:12:41.032Z,1037
2023-02-07T03:13:40.981Z,1037
2023-02-07T03:14:40.972Z,1037
2023-02-07T03:15:40.977Z,1037
2023-02-07T03:16:49.304Z,1037
2023-02-07T03:17:49.303Z,1037
2023-02-07T03:18:49.302Z,1037
2023-02-07T03:19:49.317Z,1037
2023-02-07T03:20:49.297Z,1037
2023-02-07T03:22:49.332Z,1037
2023-02-07T03:23:49.311Z,1037
2023-02-07T03:25:49.297Z,1037
2023-02-07T03:26:49.305Z,1037
2023-02-07T03:27:49.329Z,1037
2023-02-07T03:28:49.298Z,1037
2023-02-07T03:29:49.297Z,1037
2023-02-07T03:30:49.376Z,1037.1
2023-02-07T03:31:49.302Z,1037.1
2023-02-07T03:32:49.490Z,1037.1
2023-02-07T03:34:08.029Z,1037.1
2023-02-07T03:36:49.520Z,1037.1
2023-02-07T03:37:37.416Z,1037.1
2023-02-07T03:38:37.793Z,1037.1
2023-02-07T03:39:38.280Z,1037.1
2023-02-07T03:40:37.425Z,1037.2
2023-02-07T03:41:37.414Z,1037.1
2023-02-07T03:42:37.419Z,1037.2
2023-02-07T03:43:38.080Z,1037.2
2023-02-07T03:44:37.419Z,1037.2
2023-02-07T03:45:38.013Z,1037.2
2023-02-07T03:46:37.519Z,1037.3
2023-02-07T03:47:37.428Z,1037.2
2023-02-07T03:48:37.507Z,1037.2
2023-02-07T03:49:38.120Z,1037.2
2023-02-07T03:50:37.423Z,1037.1
2023-02-07T03:51:37.435Z,1037.2
2023-02-07T03:52:37.686Z,1037.2
2023-02-07T03:53:37.487Z,1037.2
2023-02-07T03:54:38.224Z,1037.2
2023-02-07T03:55:37.906Z,1037.2
2023-02-07T03:56:37.429Z,1037.2
2023-02-07T03:57:37.985Z,1037.2
2023-02-07T03:58:37.457Z,1037.2
2023-02-07T03:59:38.009Z,1037.2
2023-02-07T04:00:37.428Z,1037.1
2023-02-07T04:01:38.245Z,1037.2
2023-02-07T04:02:37.422Z,1037.2
2023-02-07T04:04:37.457Z,1037.2
2023-02-07T04:06:37.963Z,1037.2
2023-02-07T04:07:38.060Z,1037.1
2023-02-07T04:08:37.432Z,1037.1
2023-02-07T04:09:37.938Z,1037.1
2023-02-07T04:10:38.084Z,1037.1
2023-02-07T04:11:38.029Z,1037.2
2023-02-07T04:12:37.670Z,1037.1
2023-02-07T04:13:37.430Z,1037.1
2023-02-07T04:14:37.437Z,1037.1
2023-02-07T04:15:37.851Z,1037.1
2023-02-07T04:16:38.009Z,1037.1
2023-02-07T04:17:37.425Z,1037.1
2023-02-07T04:18:37.425Z,1037.1
2023-02-07T04:19:37.439Z,1037
2023-02-07T04:20:37.421Z,1037
2023-02-07T04:21:37.430Z,1037
2023-02-07T04:23:40.977Z,1037
2023-02-07T04:24:41.000Z,1037
2023-02-07T04:25:40.986Z,1036.9
2023-02-07T04:26:40.976Z,1036.9
2023-02-07T04:28:40.987Z,1036.9
2023-02-07T04:29:41.048Z,1036.9
2023-02-07T04:31:41.045Z,1036.9
2023-02-07T04:33:40.977Z,1036.9
2023-02-07T04:34:40.984Z,1036.9
2023-02-07T04:35:41.486Z,1036.9
2023-02-07T04:36:40.981Z,1036.9
2023-02-07T04:37:41.066Z,1036.8
2023-02-07T04:39:49.330Z,1036.9
2023-02-07T04:40:49.314Z,1036.8
2023-02-07T04:41:49.302Z,1036.8
2023-02-07T04:42:49.328Z,1036.8
2023-02-07T04:43:49.299Z,1036.8
2023-02-07T04:44:49.302Z,1036.8
2023-02-07T04:45:45.861Z,1036.7
2023-02-07T04:46:49.302Z,1036.7
2023-02-07T04:47:49.305Z,1036.8
2023-02-07T04:48:49.298Z,1036.7
2023-02-07T04:49:49.321Z,1036.8
2023-02-07T04:50:49.305Z,1036.8
2023-02-07T04:51:49.312Z,1036.8
2023-02-07T04:52:49.304Z,1036.8
2023-02-07T04:53:49.307Z,1036.7
2023-02-07T04:55:08.049Z,1036.8
2023-02-07T04:58:50.400Z,1036.8
2023-02-07T05:01:18.711Z,1036.8
2023-02-07T05:07:29.266Z,1036.7
2023-02-07T05:09:20.453Z,1036.8
2023-02-07T05:16:08.524Z,1036.9
2023-02-07T05:19:50.933Z,1036.9
2023-02-07T05:24:47.472Z,1036.9
2023-02-07T05:26:28.758Z,1036.9
2023-02-07T05:26:49.220Z,1037
2023-02-07T05:27:37.850Z,1037
2023-02-07T05:28:37.774Z,1037
2023-02-07T05:29:37.885Z,1037
2023-02-07T05:30:37.593Z,1037
2023-02-07T05:31:37.851Z,1037.1
2023-02-07T05:32:37.449Z,1037.1
2023-02-07T05:33:37.577Z,1037
2023-02-07T05:34:38.216Z,1037.1
2023-02-07T05:35:38.245Z,1037.1
2023-02-07T05:36:38.559Z,1037.1
2023-02-07T05:37:37.358Z,1037.1
2023-02-07T05:39:37.442Z,1037.1
2023-02-07T05:40:37.434Z,1037.1
2023-02-07T05:41:37.601Z,1037.1
2023-02-07T05:42:37.452Z,1037.1
2023-02-07T05:43:38.221Z,1037.1
2023-02-07T05:44:38.055Z,1037.1
2023-02-07T05:45:37.875Z,1037.2
2023-02-07T05:46:37.923Z,1037.2
2023-02-07T05:48:37.427Z,1037.2
2023-02-07T05:49:37.462Z,1037.2
2023-02-07T05:50:37.679Z,1037.2
2023-02-07T05:51:37.495Z,1037.2
2023-02-07T05:52:37.584Z,1037.2
2023-02-07T05:53:37.444Z,1037.2
2023-02-07T05:54:37.444Z,1037.2
2023-02-07T05:55:37.925Z,1037.3
2023-02-07T05:56:37.453Z,1037.3
2023-02-07T05:58:37.437Z,1037.2
2023-02-07T06:00:37.437Z,1037.3
2023-02-07T06:01:37.981Z,1037.2
2023-02-07T06:02:37.923Z,1037.3
2023-02-07T06:03:37.534Z,1037.3
2023-02-07T06:04:37.908Z,1037.4
2023-02-07T06:05:38.685Z,1037.4
2023-02-07T06:06:38.052Z,1037.3
2023-02-07T06:07:38.026Z,1037.3
2023-02-07T06:08:37.589Z,1037.3
2023-02-07T06:09:40.984Z,1037.3
2023-02-07T06:10:40.996Z,1037.3
2023-02-07T06:11:41.018Z,1037.3
2023-02-07T06:12:41.002Z,1037.3
2023-02-07T06:13:40.983Z,1037.3
2023-02-07T06:14:40.991Z,1037.3
2023-02-07T06:15:41.427Z,1037.3
2023-02-07T06:16:40.988Z,1037.3
2023-02-07T06:17:40.989Z,1037.3
2023-02-07T06:19:40.979Z,1037.3
2023-02-07T06:20:40.993Z,1037.3
2023-02-07T06:21:46.435Z,1037.3
2023-02-07T06:22:41.010Z,1037.3
2023-02-07T06:23:40.976Z,1037.3
2023-02-07T06:24:41.079Z,1037.3
2023-02-07T06:25:49.304Z,1037.3
2023-02-07T06:26:49.341Z,1037.3
2023-02-07T06:27:49.364Z,1037.3
2023-02-07T06:28:49.308Z,1037.3
2023-02-07T06:29:49.311Z,1037.3
2023-02-07T06:30:49.467Z,1037.3
2023-02-07T06:31:49.356Z,1037.3
2023-02-07T06:32:49.312Z,1037.3
2023-02-07T06:33:49.314Z,1037.3
2023-02-07T06:34:49.327Z,1037.3
2023-02-07T06:35:49.316Z,1037.3
2023-02-07T06:36:49.312Z,1037.4
2023-02-07T06:37:49.321Z,1037.4
2023-02-07T06:38:49.321Z,1037.4
2023-02-07T06:39:49.323Z,1037.4
2023-02-07T06:40:49.527Z,1037.4
2023-02-07T06:42:08.066Z,1037.4
2023-02-07T06:45:50.424Z,1037.5
2023-02-07T06:48:18.654Z,1037.4
2023-02-07T06:52:38.092Z,1037.4
2023-02-07T06:54:29.293Z,1037.5
2023-02-07T07:01:17.363Z,1037.5
2023-02-07T07:03:45.610Z,1037.5
2023-02-07T07:08:42.144Z,1037.5
2023-02-07T07:13:38.710Z,1037.6
2023-02-07T07:16:19.876Z,1037.6
2023-02-07T07:16:47.923Z,1037.7
2023-02-07T07:17:30.741Z,1037.4
2023-02-07T07:18:37.520Z,1037.8
2023-02-07T07:19:37.452Z,1037.8
2023-02-07T07:20:37.459Z,1037.8
2023-02-07T07:21:37.448Z,1037.8
2023-02-07T07:22:37.445Z,1037.8
2023-02-07T07:23:37.963Z,1037.8
2023-02-07T07:24:38.208Z,1037.8
2023-02-07T07:25:38.505Z,1037.8
2023-02-07T07:26:48.914Z,1037.8
2023-02-07T07:27:37.659Z,1037.8
2023-02-07T07:29:38.142Z,1037.8
2023-02-07T07:30:37.931Z,1037.7
2023-02-07T07:31:38.313Z,1037.7
2023-02-07T07:33:37.594Z,1037.7
2023-02-07T07:34:37.446Z,1037.7
2023-02-07T07:35:38.076Z,1037.8
2023-02-07T07:36:38.302Z,1037.8
2023-02-07T07:38:38.329Z,1037.8
2023-02-07T07:39:37.453Z,1037.8
2023-02-07T07:40:38.146Z,1037.8
2023-02-07T07:41:38.060Z,1037.8
2023-02-07T07:42:37.446Z,1037.8
2023-02-07T07:43:37.501Z,1037.8
2023-02-07T07:44:38.685Z,1037.7
2023-02-07T07:45:38.039Z,1037.7
2023-02-07T07:46:37.839Z,1037.7
2023-02-07T07:47:37.451Z,1037.8
2023-02-07T07:48:38.056Z,1037.8
2023-02-07T07:49:37.438Z,1037.7
2023-02-07T07:50:38.367Z,1037.7
2023-02-07T07:51:37.700Z,1037.8
2023-02-07T07:52:37.455Z,1037.8
2023-02-07T07:54:37.884Z,1037.8
2023-02-07T07:55:37.442Z,1037.8
2023-02-07T07:56:37.516Z,1037.8
2023-02-07T07:57:40.981Z,1037.8
2023-02-07T07:58:42.515Z,1037.8
2023-02-07T07:59:41.030Z,1037.8
2023-02-07T08:00:36.054Z,1037.8
2023-02-07T08:02:41.031Z,1037.9
2023-02-07T08:03:41.037Z,1037.9
2023-02-07T08:04:40.994Z,1037.9
2023-02-07T08:05:40.990Z,1038
2023-02-07T08:06:40.989Z,1038
2023-02-07T08:07:41.013Z,1038
2023-02-07T08:08:40.991Z,1038
2023-02-07T08:09:40.990Z,1038
2023-02-07T08:10:41.296Z,1038
2023-02-07T08:12:43.213Z,1038
2023-02-07T08:14:49.352Z,1038
2023-02-07T08:15:49.314Z,1038
2023-02-07T08:16:49.312Z,1038
2023-02-07T08:17:49.341Z,1038
2023-02-07T08:18:49.337Z,1038
2023-02-07T08:19:49.334Z,1038
2023-02-07T08:20:49.321Z,1037.9
2023-02-07T08:21:49.329Z,1037.9
2023-02-07T08:22:49.326Z,1037.9
2023-02-07T08:23:49.322Z,1037.8
2023-02-07T08:24:49.332Z,1037.9
2023-02-07T08:25:49.319Z,1037.9
2023-02-07T08:26:49.334Z,1037.9
2023-02-07T08:27:49.345Z,1037.9
2023-02-07T08:28:49.318Z,1037.9
2023-02-07T08:29:49.327Z,1037.9
2023-02-07T08:31:08.094Z,1037.9
2023-02-07T08:32:22.176Z,1037.9
2023-02-07T08:33:36.314Z,1037.9
2023-02-07T08:34:50.432Z,1037.9
2023-02-07T08:38:32.785Z,1037.9
2023-02-07T08:43:29.291Z,1038
2023-02-07T08:45:20.485Z,1038
2023-02-07T08:46:34.656Z,1038
2023-02-07T08:52:08.532Z,1038.1
2023-02-07T08:55:50.268Z,1038
2023-02-07T08:56:18.898Z,1038
2023-02-07T08:56:33.034Z,1038
2023-02-07T08:57:09.307Z,1038
2023-02-07T08:57:37.455Z,1038
2023-02-07T08:58:38.075Z,1038
2023-02-07T08:59:38.240Z,1038
2023-02-07T09:00:38.083Z,1038
2023-02-07T09:01:37.769Z,1038
2023-02-07T09:02:38.172Z,1038
2023-02-07T09:03:37.720Z,1038
2023-02-07T09:04:38.019Z,1038
2023-02-07T09:05:38.004Z,1038
2023-02-07T09:06:37.487Z,1037.9
2023-02-07T09:07:37.470Z,1037.9
2023-02-07T09:08:37.828Z,1037.9
2023-02-07T09:09:37.794Z,1038
2023-02-07T09:11:37.584Z,1037.9
2023-02-07T09:12:38.211Z,1037.9
2023-02-07T09:13:37.848Z,1037.9
2023-02-07T09:14:37.802Z,1037.9
2023-02-07T09:15:38.226Z,1037.9
2023-02-07T09:16:37.535Z,1037.9
2023-02-07T09:17:38.036Z,1037.9
2023-02-07T09:18:37.604Z,1037.9
2023-02-07T09:19:37.775Z,1038
2023-02-07T09:20:38.881Z,1038
2023-02-07T09:21:38.144Z,1037.9
2023-02-07T09:22:34.896Z,1037.9
2023-02-07T09:23:37.973Z,1037.9
2023-02-07T09:24:38.109Z,1037.9
2023-02-07T09:25:37.462Z,1037.9
2023-02-07T09:26:38.076Z,1037.9
2023-02-07T09:27:38.218Z,1037.9
2023-02-07T09:28:38.099Z,1037.8
2023-02-07T09:29:37.476Z,1037.8
2023-02-07T09:30:37.566Z,1037.9
2023-02-07T09:31:37.632Z,1037.8
2023-02-07T09:33:37.461Z,1037.8
2023-02-07T09:34:37.457Z,1037.8
2023-02-07T09:35:37.743Z,1037.8
2023-02-07T09:36:38.304Z,1037.7
2023-02-07T09:37:48.688Z,1037.8
2023-02-07T09:38:41.008Z,1037.7
2023-02-07T09:39:41.015Z,1037.8
2023-02-07T09:40:41.008Z,1037.7
2023-02-07T09:41:41.048Z,1037.8
2023-02-07T09:42:40.998Z,1037.7
2023-02-07T09:43:41.176Z,1037.8
2023-02-07T09:45:41.018Z,1037.8
2023-02-07T09:46:41.047Z,1037.8
2023-02-07T09:47:41.032Z,1037.8
2023-02-07T09:48:41.009Z,1037.9
2023-02-07T09:49:41.010Z,1037.9
2023-02-07T09:50:41.430Z,1037.9
2023-02-07T09:51:41.046Z,1037.9
2023-02-07T09:52:41.014Z,1037.9
2023-02-07T09:53:41.017Z,1037.9
2023-02-07T09:54:42.001Z,1037.9
2023-02-07T09:55:49.334Z,1037.9
2023-02-07T09:56:49.338Z,1037.8
2023-02-07T09:57:49.354Z,1037.9
2023-02-07T09:58:49.336Z,1037.9
2023-02-07T09:59:49.333Z,1037.9
2023-02-07T10:00:49.349Z,1037.9
2023-02-07T10:01:49.332Z,1037.9
2023-02-07T10:02:49.529Z,1037.8
2023-02-07T10:03:49.366Z,1037.8
2023-02-07T10:04:49.344Z,1037.8
2023-02-07T10:05:49.351Z,1037.8
2023-02-07T10:06:49.336Z,1037.8
2023-02-07T10:07:49.341Z,1037.8
2023-02-07T10:08:49.336Z,1037.8
2023-02-07T10:09:50.136Z,1037.8
2023-02-07T10:10:49.363Z,1037.7
2023-02-07T10:12:08.055Z,1037.7
2023-02-07T10:13:22.185Z,1037.8
2023-02-07T10:14:36.313Z,1037.8
2023-02-07T10:15:50.554Z,1037.8
2023-02-07T10:18:18.701Z,1037.8
2023-02-07T10:19:32.802Z,1037.8
2023-02-07T10:24:29.295Z,1037.7
2023-02-07T10:27:34.602Z,1037.7
2023-02-07T10:33:08.552Z,1037.7
2023-02-07T10:34:43.365Z,1037.6
2023-02-07T10:34:57.707Z,1037.7
2023-02-07T10:35:19.966Z,1037.7
2023-02-07T10:35:33.468Z,1037.7
2023-02-07T10:35:47.630Z,1037.7
2023-02-07T10:36:37.937Z,1037.7
2023-02-07T10:37:37.974Z,1037.7
2023-02-07T10:38:37.458Z,1037.6
2023-02-07T10:39:37.476Z,1037.6
2023-02-07T10:40:37.843Z,1037.6
2023-02-07T10:41:37.456Z,1037.5
2023-02-07T10:42:37.546Z,1037.6
2023-02-07T10:43:37.466Z,1037.6
2023-02-07T10:44:35.950Z,1037.6
2023-02-07T10:45:37.461Z,1037.6
2023-02-07T10:47:38.075Z,1037.7
2023-02-07T10:48:37.923Z,1037.7
2023-02-07T10:49:37.474Z,1037.6
2023-02-07T10:50:37.461Z,1037.6
2023-02-07T10:51:38.153Z,1037.6
2023-02-07T10:52:37.517Z,1037.6
2023-02-07T10:53:49.100Z,1037.6
2023-02-07T10:54:37.522Z,1037.6
2023-02-07T10:55:37.575Z,1037.6
2023-02-07T10:56:37.485Z,1037.7
2023-02-07T10:57:37.521Z,1037.6
2023-02-07T10:58:37.592Z,1037.7
2023-02-07T10:59:38.319Z,1037.7
2023-02-07T11:00:38.469Z,1037.7
2023-02-07T11:01:39.396Z,1037.7
2023-02-07T11:02:37.652Z,1037.6
2023-02-07T11:03:37.461Z,1037.7
2023-02-07T11:05:38.250Z,1037.7
2023-02-07T11:06:38.009Z,1037.7
2023-02-07T11:07:47.401Z,1037.7
2023-02-07T11:08:37.466Z,1037.7
2023-02-07T11:09:38.339Z,1037.7
2023-02-07T11:10:37.473Z,1037.7
2023-02-07T11:11:37.768Z,1037.7
2023-02-07T11:12:38.188Z,1037.7
2023-02-07T11:13:37.470Z,1037.7
2023-02-07T11:14:40.102Z,1037.7
2023-02-07T11:15:38.702Z,1037.7
2023-02-07T11:16:37.467Z,1037.7
2023-02-07T11:17:41.065Z,1037.8
2023-02-07T11:18:43.501Z,1037.7
2023-02-07T11:19:41.023Z,1037.7
2023-02-07T11:20:41.043Z,1037.7
2023-02-07T11:21:41.047Z,1037.7
2023-02-07T11:22:41.038Z,1037.8
2023-02-07T11:23:41.011Z,1037.8
2023-02-07T11:24:41.017Z,1037.8
2023-02-07T11:25:41.286Z,1037.8
2023-02-07T11:26:41.079Z,1037.7
2023-02-07T11:27:41.048Z,1037.7
2023-02-07T11:28:41.019Z,1037.7
2023-02-07T11:30:41.058Z,1037.7
2023-02-07T11:31:41.158Z,1037.6
2023-02-07T11:32:41.017Z,1037.6
2023-02-07T11:33:49.344Z,1037.6
2023-02-07T11:34:49.364Z,1037.6
2023-02-07T11:35:49.371Z,1037.6
2023-02-07T11:36:49.348Z,1037.6
2023-02-07T11:37:49.346Z,1037.6
2023-02-07T11:38:49.351Z,1037.5
2023-02-07T11:39:49.344Z,1037.5
2023-02-07T11:40:49.349Z,1037.5
2023-02-07T11:41:49.350Z,1037.5
2023-02-07T11:42:49.363Z,1037.5
2023-02-07T11:43:49.363Z,1037.5
2023-02-07T11:44:49.352Z,1037.5
2023-02-07T11:45:49.346Z,1037.4
2023-02-07T11:46:49.373Z,1037.4
2023-02-07T11:47:49.373Z,1037.4
2023-02-07T11:48:49.372Z,1037.5
2023-02-07T11:50:08.072Z,1037.4
2023-02-07T11:53:50.451Z,1037.4
2023-02-07T12:00:38.154Z,1037.4
2023-02-07T12:02:29.320Z,1037.3
2023-02-07T12:04:20.517Z,1037.3
2023-02-07T12:06:37.492Z,1037.3
2023-02-07T12:07:37.504Z,1037.2
2023-02-07T12:08:37.488Z,1037.3
2023-02-07T12:09:37.502Z,1037.3
2023-02-07T12:10:37.561Z,1037.3
2023-02-07T12:11:37.487Z,1037.2
2023-02-07T12:12:37.525Z,1037.3
2023-02-07T12:13:37.536Z,1037.3
2023-02-07T12:14:38.292Z,1037.2
2023-02-07T12:15:38.439Z,1037.3
2023-02-07T12:18:37.720Z,1037.2
2023-02-07T12:19:37.488Z,1037.2
2023-02-07T12:20:38.492Z,1037.3
2023-02-07T12:21:37.983Z,1037.3
2023-02-07T12:22:41.904Z,1037.3
2023-02-07T12:23:43.881Z,1037.4
2023-02-07T12:24:37.794Z,1037.3
2023-02-07T12:25:37.889Z,1037.3
2023-02-07T12:26:37.855Z,1037.3
2023-02-07T12:27:37.519Z,1037.3
2023-02-07T12:28:37.499Z,1037.2
2023-02-07T12:29:37.497Z,1037.2
2023-02-07T12:30:37.908Z,1037.2
2023-02-07T12:31:37.647Z,1037.1
2023-02-07T12:32:37.669Z,1037.1
2023-02-07T12:33:38.255Z,1037.1
2023-02-07T12:34:37.507Z,1037.1
2023-02-07T12:35:41.141Z,1037.1
2023-02-07T12:36:37.495Z,1037.1
2023-02-07T12:37:37.502Z,1037.1
2023-02-07T12:38:38.007Z,1037.1
2023-02-07T12:39:37.536Z,1037.1
2023-02-07T12:40:37.850Z,1037.1
2023-02-07T12:41:37.501Z,1037.1
2023-02-07T12:42:37.624Z,1037.1
2023-02-07T12:43:38.143Z,1037
2023-02-07T12:44:37.514Z,1037
2023-02-07T12:45:37.956Z,1037
2023-02-07T12:46:37.818Z,1037
2023-02-07T12:47:37.508Z,1037
2023-02-07T12:48:37.543Z,1037
2023-02-07T12:49:41.054Z,1037
2023-02-07T12:50:41.048Z,1037
2023-02-07T12:51:41.049Z,1037
2023-02-07T12:52:41.076Z,1037
2023-02-07T12:53:41.059Z,1036.9
2023-02-07T12:54:41.061Z,1037
2023-02-07T12:57:41.054Z,1036.9
2023-02-07T12:58:41.053Z,1036.9
2023-02-07T12:59:41.056Z,1036.8
2023-02-07T13:00:41.114Z,1036.8
2023-02-07T13:01:41.056Z,1036.9
2023-02-07T13:02:41.042Z,1036.9
2023-02-07T13:03:41.052Z,1036.9
2023-02-07T13:04:41.142Z,1036.9
2023-02-07T13:05:49.389Z,1036.8
2023-02-07T13:06:42.479Z,1036.9
2023-02-07T13:07:49.398Z,1036.9
2023-02-07T13:08:49.379Z,1036.8
2023-02-07T13:09:49.404Z,1036.8
2023-02-07T13:10:49.660Z,1036.8
2023-02-07T13:11:49.371Z,1036.8
2023-02-07T13:12:49.384Z,1036.9
2023-02-07T13:13:49.392Z,1036.8
2023-02-07T13:14:49.378Z,1036.9
2023-02-07T13:15:49.379Z,1036.8
2023-02-07T13:16:49.439Z,1036.8
2023-02-07T13:17:49.380Z,1036.8
2023-02-07T13:18:49.376Z,1036.7
2023-02-07T13:20:49.377Z,1036.8
2023-02-07T13:22:08.098Z,1036.7
2023-02-07T13:24:37.128Z,1036.7
2023-02-07T13:25:50.480Z,1036.7
2023-02-07T13:28:18.778Z,1036.7
2023-02-07T13:29:32.846Z,1036.7
2023-02-07T13:32:38.156Z,1036.7
2023-02-07T13:34:29.337Z,1036.7
2023-02-07T13:36:20.528Z,1036.7
2023-02-07T13:37:34.645Z,1036.6
2023-02-07T13:41:17.019Z,1036.6
2023-02-07T13:43:08.606Z,1036.6
2023-02-07T13:46:50.995Z,1036.6
2023-02-07T13:51:47.530Z,1036.6
2023-02-07T13:56:43.370Z,1036.5
2023-02-07T13:56:58.405Z,1036.5
2023-02-07T13:57:33.254Z,1036.6
2023-02-07T13:58:10.779Z,1036.7
2023-02-07T13:58:37.753Z,1036.5
2023-02-07T13:59:37.504Z,1036.5
2023-02-07T14:00:37.957Z,1036.5
2023-02-07T14:01:37.905Z,1036.5
2023-02-07T14:02:38.014Z,1036.5
2023-02-07T14:03:38.371Z,1036.5
2023-02-07T14:04:37.545Z,1036.5
2023-02-07T14:05:38.334Z,1036.5
2023-02-07T14:06:38.284Z,1036.6
2023-02-07T14:07:38.246Z,1036.5
2023-02-07T14:08:37.856Z,1036.6
2023-02-07T14:09:37.528Z,1036.5
2023-02-07T14:10:38.193Z,1036.6
2023-02-07T14:11:37.698Z,1036.5
2023-02-07T14:12:38.060Z,1036.5
2023-02-07T14:13:37.988Z,1036.4
2023-02-07T14:14:37.536Z,1036.4
2023-02-07T14:15:38.530Z,1036.5
2023-02-07T14:16:37.518Z,1036.5
2023-02-07T14:17:37.843Z,1036.5
2023-02-07T14:18:37.517Z,1036.5
2023-02-07T14:19:37.518Z,1036.5
2023-02-07T14:20:38.051Z,1036.5
2023-02-07T14:21:37.544Z,1036.6
2023-02-07T14:22:37.807Z,1036.6
2023-02-07T14:23:37.919Z,1036.6
2023-02-07T14:24:37.998Z,1036.6
2023-02-07T14:25:37.852Z,1036.6
2023-02-07T14:26:37.559Z,1036.6
2023-02-07T14:27:38.317Z,1036.6
2023-02-07T14:29:37.877Z,1036.6
2023-02-07T14:30:37.961Z,1036.6
2023-02-07T14:31:37.635Z,1036.6
2023-02-07T14:32:38.246Z,1036.6
2023-02-07T14:33:37.511Z,1036.6
2023-02-07T14:34:37.826Z,1036.6
2023-02-07T14:35:38.071Z,1036.5
2023-02-07T14:36:37.585Z,1036.5
2023-02-07T14:37:38.030Z,1036.6
2023-02-07T14:38:37.570Z,1036.5
2023-02-07T14:40:41.329Z,1036.5
2023-02-07T14:41:41.066Z,1036.6
2023-02-07T14:42:41.067Z,1036.5
2023-02-07T14:43:41.091Z,1036.5
2023-02-07T14:44:41.079Z,1036.5
2023-02-07T14:45:41.121Z,1036.5
2023-02-07T14:46:41.142Z,1036.5
2023-02-07T14:48:41.089Z,1036.5
2023-02-07T14:49:41.061Z,1036.5
2023-02-07T14:50:41.330Z,1036.5
2023-02-07T14:51:41.066Z,1036.5
2023-02-07T14:53:41.141Z,1036.4
2023-02-07T14:54:41.107Z,1036.5
2023-02-07T14:55:49.396Z,1036.5
2023-02-07T14:56:49.395Z,1036.5
2023-02-07T14:57:49.419Z,1036.5
2023-02-07T14:58:49.396Z,1036.5
2023-02-07T14:59:49.399Z,1036.5
2023-02-07T15:00:49.402Z,1036.5
2023-02-07T15:01:49.400Z,1036.4
2023-02-07T15:02:49.496Z,1036.5
2023-02-07T15:03:49.400Z,1036.4
2023-02-07T15:04:49.430Z,1036.4
2023-02-07T15:05:49.401Z,1036.4
2023-02-07T15:06:49.426Z,1036.4
2023-02-07T15:07:49.394Z,1036.4
2023-02-07T15:09:49.410Z,1036.4
2023-02-07T15:10:49.459Z,1036.3
2023-02-07T15:11:59.857Z,1036.3
2023-02-07T15:13:08.125Z,1036.3
2023-02-07T15:14:22.253Z,1036.3
2023-02-07T15:16:51.471Z,1036.3
2023-02-07T15:19:18.755Z,1036.3
2023-02-07T15:20:32.912Z,1036.3
2023-02-07T15:25:29.382Z,1036.4
2023-02-07T15:27:20.562Z,1036.4
2023-02-07T15:28:34.717Z,1036.3
2023-02-07T15:29:32.236Z,1036.3
2023-02-07T15:30:38.089Z,1036.3
2023-02-07T15:31:37.701Z,1036.3
2023-02-07T15:32:38.134Z,1036.3
2023-02-07T15:33:37.527Z,1036.3
2023-02-07T15:35:37.534Z,1036.4
2023-02-07T15:36:37.970Z,1036.4
2023-02-07T15:37:37.538Z,1036.4
2023-02-07T15:38:38.100Z,1036.4
2023-02-07T15:39:38.017Z,1036.3
2023-02-07T15:40:37.696Z,1036.3